sensor_id;sensor_type;location;lat;lon;timestamp;P1;durP1;ratioP1;P2;durP2;ratioP2
23282;SDS011;11810;51.178;3.878;2023-05-23T00:00:27;72.25;;;32.05;;
23282;SDS011;11810;51.178;3.878;2023-05-23T00:02:53;64.82;;;30.50;;
23282;SDS011;11810;51.178;3.878;2023-05-23T00:05:19;65.07;;;31.90;;
23282;SDS011;11810;51.178;3.878;2023-05-23T00:07:45;63.80;;;32.42;;
23282;SDS011;11810;51.178;3.878;2023-05-23T00:10:11;60.75;;;29.77;;
23282;SDS011;11810;51.178;3.878;2023-05-23T00:12:37;40.15;;;24.50;;
23282;SDS011;11810;51.178;3.878;2023-05-23T00:15:06;38.30;;;23.33;;
23282;SDS011;11810;51.178;3.878;2023-05-23T00:17:34;39.70;;;22.98;;
23282;SDS011;11810;51.178;3.878;2023-05-23T00:20:04;37.85;;;20.58;;
23282;SDS011;11810;51.178;3.878;2023-05-23T00:22:34;38.08;;;21.75;;
23282;SDS011;11810;51.178;3.878;2023-05-23T00:25:10;40.53;;;21.02;;
23282;SDS011;11810;51.178;3.878;2023-05-23T00:27:36;31.65;;;20.67;;
23282;SDS011;11810;51.178;3.878;2023-05-23T00:30:02;39.72;;;21.55;;
23282;SDS011;11810;51.178;3.878;2023-05-23T00:32:28;46.53;;;21.58;;
23282;SDS011;11810;51.178;3.878;2023-05-23T00:34:54;41.88;;;22.75;;
23282;SDS011;11810;51.178;3.878;2023-05-23T00:37:21;43.65;;;23.00;;
23282;SDS011;11810;51.178;3.878;2023-05-23T00:39:47;51.80;;;25.77;;
23282;SDS011;11810;51.178;3.878;2023-05-23T00:42:13;55.05;;;25.05;;
23282;SDS011;11810;51.178;3.878;2023-05-23T00:44:39;51.28;;;23.77;;
23282;SDS011;11810;51.178;3.878;2023-05-23T00:47:05;42.88;;;23.15;;
23282;SDS011;11810;51.178;3.878;2023-05-23T00:49:32;48.67;;;23.65;;
23282;SDS011;11810;51.178;3.878;2023-05-23T00:51:59;45.10;;;22.77;;
23282;SDS011;11810;51.178;3.878;2023-05-23T00:54:27;46.83;;;23.38;;
23282;SDS011;11810;51.178;3.878;2023-05-23T00:56:55;47.75;;;25.52;;
23282;SDS011;11810;51.178;3.878;2023-05-23T00:59:23;53.10;;;26.58;;
23282;SDS011;11810;51.178;3.878;2023-05-23T01:01:51;48.58;;;26.02;;
23282;SDS011;11810;51.178;3.878;2023-05-23T01:04:18;45.40;;;25.23;;
23282;SDS011;11810;51.178;3.878;2023-05-23T01:06:45;52.20;;;25.67;;
23282;SDS011;11810;51.178;3.878;2023-05-23T01:09:15;46.58;;;26.38;;
23282;SDS011;11810;51.178;3.878;2023-05-23T01:14:50;57.35;;;23.98;;
23282;SDS011;11810;51.178;3.878;2023-05-23T01:17:24;49.42;;;23.85;;
23282;SDS011;11810;51.178;3.878;2023-05-23T01:20:06;48.17;;;23.65;;
23282;SDS011;11810;51.178;3.878;2023-05-23T01:28:07;48.63;;;22.77;;
23282;SDS011;11810;51.178;3.878;2023-05-23T01:30:38;44.80;;;22.67;;
23282;SDS011;11810;51.178;3.878;2023-05-23T01:33:06;47.53;;;22.55;;
23282;SDS011;11810;51.178;3.878;2023-05-23T01:35:34;45.22;;;21.98;;
23282;SDS011;11810;51.178;3.878;2023-05-23T01:38:01;45.63;;;22.50;;
23282;SDS011;11810;51.178;3.878;2023-05-23T01:40:27;45.13;;;20.88;;
23282;SDS011;11810;51.178;3.878;2023-05-23T01:42:54;43.60;;;24.55;;
23282;SDS011;11810;51.178;3.878;2023-05-23T01:45:21;49.95;;;23.85;;
23282;SDS011;11810;51.178;3.878;2023-05-23T01:47:50;52.72;;;24.48;;
23282;SDS011;11810;51.178;3.878;2023-05-23T01:50:17;47.83;;;24.00;;
23282;SDS011;11810;51.178;3.878;2023-05-23T01:52:44;45.97;;;24.30;;
23282;SDS011;11810;51.178;3.878;2023-05-23T01:55:11;48.58;;;25.08;;
23282;SDS011;11810;51.178;3.878;2023-05-23T01:57:40;52.60;;;24.55;;
23282;SDS011;11810;51.178;3.878;2023-05-23T02:00:06;44.13;;;22.17;;
23282;SDS011;11810;51.178;3.878;2023-05-23T02:02:36;46.70;;;23.35;;
23282;SDS011;11810;51.178;3.878;2023-05-23T02:05:02;48.78;;;23.33;;
23282;SDS011;11810;51.178;3.878;2023-05-23T02:07:28;45.30;;;22.65;;
23282;SDS011;11810;51.178;3.878;2023-05-23T02:09:54;47.58;;;23.45;;
23282;SDS011;11810;51.178;3.878;2023-05-23T02:12:20;51.10;;;22.50;;
23282;SDS011;11810;51.178;3.878;2023-05-23T02:14:46;47.97;;;23.40;;
23282;SDS011;11810;51.178;3.878;2023-05-23T02:17:13;52.30;;;23.25;;
23282;SDS011;11810;51.178;3.878;2023-05-23T02:19:42;51.83;;;22.38;;
23282;SDS011;11810;51.178;3.878;2023-05-23T02:22:08;45.42;;;21.00;;
23282;SDS011;11810;51.178;3.878;2023-05-23T02:24:34;45.22;;;21.80;;
23282;SDS011;11810;51.178;3.878;2023-05-23T02:27:00;47.90;;;21.10;;
23282;SDS011;11810;51.178;3.878;2023-05-23T02:29:26;46.90;;;19.40;;
23282;SDS011;11810;51.178;3.878;2023-05-23T02:31:51;48.05;;;20.67;;
23282;SDS011;11810;51.178;3.878;2023-05-23T02:34:17;42.60;;;19.65;;
23282;SDS011;11810;51.178;3.878;2023-05-23T02:36:43;49.78;;;20.00;;
23282;SDS011;11810;51.178;3.878;2023-05-23T02:39:09;46.00;;;19.38;;
23282;SDS011;11810;51.178;3.878;2023-05-23T02:41:35;47.95;;;19.02;;
23282;SDS011;11810;51.178;3.878;2023-05-23T02:44:01;48.47;;;20.08;;
23282;SDS011;11810;51.178;3.878;2023-05-23T02:46:27;43.28;;;19.13;;
23282;SDS011;11810;51.178;3.878;2023-05-23T02:48:53;48.85;;;21.30;;
23282;SDS011;11810;51.178;3.878;2023-05-23T02:51:19;46.60;;;18.08;;
23282;SDS011;11810;51.178;3.878;2023-05-23T02:53:45;34.10;;;17.67;;
23282;SDS011;11810;51.178;3.878;2023-05-23T02:56:11;52.95;;;19.60;;
23282;SDS011;11810;51.178;3.878;2023-05-23T02:58:37;40.97;;;18.67;;
23282;SDS011;11810;51.178;3.878;2023-05-23T03:01:04;50.47;;;19.20;;
23282;SDS011;11810;51.178;3.878;2023-05-23T03:03:30;43.53;;;17.85;;
23282;SDS011;11810;51.178;3.878;2023-05-23T03:05:59;54.53;;;20.70;;
23282;SDS011;11810;51.178;3.878;2023-05-23T03:08:27;43.55;;;18.48;;
23282;SDS011;11810;51.178;3.878;2023-05-23T03:10:53;52.85;;;20.17;;
23282;SDS011;11810;51.178;3.878;2023-05-23T03:13:19;46.97;;;20.33;;
23282;SDS011;11810;51.178;3.878;2023-05-23T03:15:45;41.78;;;18.25;;
23282;SDS011;11810;51.178;3.878;2023-05-23T03:18:11;37.15;;;17.52;;
23282;SDS011;11810;51.178;3.878;2023-05-23T03:20:37;34.90;;;18.00;;
23282;SDS011;11810;51.178;3.878;2023-05-23T03:23:03;39.90;;;17.45;;
23282;SDS011;11810;51.178;3.878;2023-05-23T03:25:29;39.53;;;17.55;;
23282;SDS011;11810;51.178;3.878;2023-05-23T03:27:55;38.67;;;17.38;;
23282;SDS011;11810;51.178;3.878;2023-05-23T03:30:21;40.50;;;17.85;;
23282;SDS011;11810;51.178;3.878;2023-05-23T03:32:47;39.40;;;17.60;;
23282;SDS011;11810;51.178;3.878;2023-05-23T03:35:14;36.80;;;18.80;;
23282;SDS011;11810;51.178;3.878;2023-05-23T03:37:40;43.38;;;17.52;;
23282;SDS011;11810;51.178;3.878;2023-05-23T03:40:06;50.05;;;19.90;;
23282;SDS011;11810;51.178;3.878;2023-05-23T03:42:32;40.20;;;18.15;;
23282;SDS011;11810;51.178;3.878;2023-05-23T03:44:58;40.30;;;19.10;;
23282;SDS011;11810;51.178;3.878;2023-05-23T03:47:24;42.33;;;18.65;;
23282;SDS011;11810;51.178;3.878;2023-05-23T03:49:50;38.55;;;17.42;;
23282;SDS011;11810;51.178;3.878;2023-05-23T03:52:16;43.60;;;16.00;;
23282;SDS011;11810;51.178;3.878;2023-05-23T03:54:42;36.38;;;14.98;;
23282;SDS011;11810;51.178;3.878;2023-05-23T03:57:08;41.90;;;14.52;;
23282;SDS011;11810;51.178;3.878;2023-05-23T03:59:34;47.22;;;15.02;;
23282;SDS011;11810;51.178;3.878;2023-05-23T04:02:00;41.75;;;14.70;;
23282;SDS011;11810;51.178;3.878;2023-05-23T04:04:26;40.00;;;14.07;;
23282;SDS011;11810;51.178;3.878;2023-05-23T04:06:53;38.42;;;13.77;;
23282;SDS011;11810;51.178;3.878;2023-05-23T04:09:20;36.20;;;14.40;;
23282;SDS011;11810;51.178;3.878;2023-05-23T04:11:45;41.20;;;13.68;;
23282;SDS011;11810;51.178;3.878;2023-05-23T04:14:12;48.90;;;16.35;;
23282;SDS011;11810;51.178;3.878;2023-05-23T04:16:38;34.22;;;14.57;;
23282;SDS011;11810;51.178;3.878;2023-05-23T04:19:05;47.90;;;15.45;;
23282;SDS011;11810;51.178;3.878;2023-05-23T04:21:35;40.33;;;15.50;;
23282;SDS011;11810;51.178;3.878;2023-05-23T04:24:01;49.92;;;16.38;;
23282;SDS011;11810;51.178;3.878;2023-05-23T04:26:27;41.38;;;16.92;;
23282;SDS011;11810;51.178;3.878;2023-05-23T04:28:53;44.20;;;18.05;;
23282;SDS011;11810;51.178;3.878;2023-05-23T04:31:22;50.08;;;17.13;;
23282;SDS011;11810;51.178;3.878;2023-05-23T04:33:48;51.45;;;17.30;;
23282;SDS011;11810;51.178;3.878;2023-05-23T04:36:14;39.67;;;17.42;;
23282;SDS011;11810;51.178;3.878;2023-05-23T04:38:40;46.20;;;18.42;;
23282;SDS011;11810;51.178;3.878;2023-05-23T04:41:06;52.08;;;18.48;;
23282;SDS011;11810;51.178;3.878;2023-05-23T04:43:34;43.20;;;17.73;;
23282;SDS011;11810;51.178;3.878;2023-05-23T04:46:07;49.67;;;16.80;;
23282;SDS011;11810;51.178;3.878;2023-05-23T04:48:34;34.85;;;15.07;;
23282;SDS011;11810;51.178;3.878;2023-05-23T04:51:01;41.03;;;14.05;;
23282;SDS011;11810;51.178;3.878;2023-05-23T04:53:30;44.85;;;14.63;;
23282;SDS011;11810;51.178;3.878;2023-05-23T04:55:56;41.13;;;14.07;;
23282;SDS011;11810;51.178;3.878;2023-05-23T04:58:22;32.30;;;13.90;;
23282;SDS011;11810;51.178;3.878;2023-05-23T05:00:48;47.13;;;14.75;;
23282;SDS011;11810;51.178;3.878;2023-05-23T05:03:14;39.53;;;15.38;;
23282;SDS011;11810;51.178;3.878;2023-05-23T05:05:40;37.08;;;16.10;;
23282;SDS011;11810;51.178;3.878;2023-05-23T05:08:06;36.78;;;13.60;;
23282;SDS011;11810;51.178;3.878;2023-05-23T05:10:32;28.95;;;12.57;;
23282;SDS011;11810;51.178;3.878;2023-05-23T05:12:58;31.55;;;12.70;;
23282;SDS011;11810;51.178;3.878;2023-05-23T05:15:24;23.27;;;11.27;;
23282;SDS011;11810;51.178;3.878;2023-05-23T05:17:50;22.02;;;10.93;;
23282;SDS011;11810;51.178;3.878;2023-05-23T05:20:16;25.30;;;11.20;;
23282;SDS011;11810;51.178;3.878;2023-05-23T05:22:42;30.10;;;11.63;;
23282;SDS011;11810;51.178;3.878;2023-05-23T05:25:09;28.90;;;11.05;;
23282;SDS011;11810;51.178;3.878;2023-05-23T05:27:35;23.50;;;10.07;;
23282;SDS011;11810;51.178;3.878;2023-05-23T05:30:07;22.40;;;10.65;;
23282;SDS011;11810;51.178;3.878;2023-05-23T05:32:34;29.42;;;10.18;;
23282;SDS011;11810;51.178;3.878;2023-05-23T05:35:00;35.60;;;10.95;;
23282;SDS011;11810;51.178;3.878;2023-05-23T05:37:27;26.95;;;10.60;;
23282;SDS011;11810;51.178;3.878;2023-05-23T05:39:54;27.25;;;10.18;;
23282;SDS011;11810;51.178;3.878;2023-05-23T05:42:20;27.75;;;9.88;;
23282;SDS011;11810;51.178;3.878;2023-05-23T05:44:47;27.73;;;11.27;;
23282;SDS011;11810;51.178;3.878;2023-05-23T05:47:13;32.33;;;11.43;;
23282;SDS011;11810;51.178;3.878;2023-05-23T05:49:40;33.92;;;11.18;;
23282;SDS011;11810;51.178;3.878;2023-05-23T05:52:06;28.40;;;10.90;;
23282;SDS011;11810;51.178;3.878;2023-05-23T05:54:32;33.35;;;11.15;;
23282;SDS011;11810;51.178;3.878;2023-05-23T05:56:58;24.65;;;10.10;;
23282;SDS011;11810;51.178;3.878;2023-05-23T05:59:25;34.47;;;11.02;;
23282;SDS011;11810;51.178;3.878;2023-05-23T06:01:51;23.02;;;9.50;;
23282;SDS011;11810;51.178;3.878;2023-05-23T06:04:17;24.63;;;9.48;;
23282;SDS011;11810;51.178;3.878;2023-05-23T06:06:43;27.48;;;10.70;;
23282;SDS011;11810;51.178;3.878;2023-05-23T06:09:09;26.13;;;9.73;;
23282;SDS011;11810;51.178;3.878;2023-05-23T06:11:35;26.75;;;9.90;;
23282;SDS011;11810;51.178;3.878;2023-05-23T06:14:08;21.67;;;9.95;;
23282;SDS011;11810;51.178;3.878;2023-05-23T06:16:34;23.58;;;10.10;;
23282;SDS011;11810;51.178;3.878;2023-05-23T06:19:00;28.40;;;10.30;;
23282;SDS011;11810;51.178;3.878;2023-05-23T06:21:26;23.90;;;9.38;;
23282;SDS011;11810;51.178;3.878;2023-05-23T06:23:51;30.80;;;9.95;;
23282;SDS011;11810;51.178;3.878;2023-05-23T06:26:17;24.67;;;9.80;;
23282;SDS011;11810;51.178;3.878;2023-05-23T06:28:43;28.13;;;9.23;;
23282;SDS011;11810;51.178;3.878;2023-05-23T06:31:09;29.25;;;10.32;;
23282;SDS011;11810;51.178;3.878;2023-05-23T06:33:35;22.52;;;10.48;;
23282;SDS011;11810;51.178;3.878;2023-05-23T06:36:01;27.30;;;10.18;;
23282;SDS011;11810;51.178;3.878;2023-05-23T06:38:30;24.55;;;9.40;;
23282;SDS011;11810;51.178;3.878;2023-05-23T06:40:59;21.48;;;10.13;;
23282;SDS011;11810;51.178;3.878;2023-05-23T06:43:26;25.15;;;11.00;;
23282;SDS011;11810;51.178;3.878;2023-05-23T06:45:52;28.52;;;11.30;;
23282;SDS011;11810;51.178;3.878;2023-05-23T06:48:18;28.90;;;10.85;;
23282;SDS011;11810;51.178;3.878;2023-05-23T06:50:44;25.00;;;10.57;;
23282;SDS011;11810;51.178;3.878;2023-05-23T06:53:10;23.55;;;9.55;;
23282;SDS011;11810;51.178;3.878;2023-05-23T06:55:36;22.98;;;10.18;;
23282;SDS011;11810;51.178;3.878;2023-05-23T06:58:02;24.50;;;9.48;;
23282;SDS011;11810;51.178;3.878;2023-05-23T07:00:31;21.27;;;9.35;;
23282;SDS011;11810;51.178;3.878;2023-05-23T07:02:57;24.33;;;9.55;;
23282;SDS011;11810;51.178;3.878;2023-05-23T07:05:27;19.75;;;8.77;;
23282;SDS011;11810;51.178;3.878;2023-05-23T07:07:53;30.23;;;9.65;;
23282;SDS011;11810;51.178;3.878;2023-05-23T07:10:19;25.60;;;11.10;;
23282;SDS011;11810;51.178;3.878;2023-05-23T07:12:46;21.27;;;9.77;;
23282;SDS011;11810;51.178;3.878;2023-05-23T07:15:12;26.02;;;10.70;;
23282;SDS011;11810;51.178;3.878;2023-05-23T07:17:39;24.90;;;9.98;;
23282;SDS011;11810;51.178;3.878;2023-05-23T07:20:05;26.27;;;9.88;;
23282;SDS011;11810;51.178;3.878;2023-05-23T07:22:32;26.75;;;9.40;;
23282;SDS011;11810;51.178;3.878;2023-05-23T07:24:58;28.17;;;9.35;;
23282;SDS011;11810;51.178;3.878;2023-05-23T07:27:25;22.00;;;8.30;;
23282;SDS011;11810;51.178;3.878;2023-05-23T07:29:51;24.50;;;8.75;;
23282;SDS011;11810;51.178;3.878;2023-05-23T07:32:18;20.23;;;8.43;;
23282;SDS011;11810;51.178;3.878;2023-05-23T07:34:43;18.88;;;7.97;;
23282;SDS011;11810;51.178;3.878;2023-05-23T07:37:09;24.58;;;7.68;;
23282;SDS011;11810;51.178;3.878;2023-05-23T07:39:35;14.07;;;7.45;;
23282;SDS011;11810;51.178;3.878;2023-05-23T07:42:01;16.90;;;6.15;;
23282;SDS011;11810;51.178;3.878;2023-05-23T07:44:28;14.60;;;6.22;;
23282;SDS011;11810;51.178;3.878;2023-05-23T07:46:53;20.02;;;6.90;;
23282;SDS011;11810;51.178;3.878;2023-05-23T07:49:19;17.45;;;6.70;;
23282;SDS011;11810;51.178;3.878;2023-05-23T07:51:45;22.00;;;5.75;;
23282;SDS011;11810;51.178;3.878;2023-05-23T07:54:11;21.67;;;5.15;;
23282;SDS011;11810;51.178;3.878;2023-05-23T07:56:37;16.58;;;5.00;;
23282;SDS011;11810;51.178;3.878;2023-05-23T07:59:04;15.82;;;4.82;;
23282;SDS011;11810;51.178;3.878;2023-05-23T08:01:30;9.38;;;4.60;;
23282;SDS011;11810;51.178;3.878;2023-05-23T08:03:56;14.20;;;4.60;;
23282;SDS011;11810;51.178;3.878;2023-05-23T08:06:21;17.35;;;4.80;;
23282;SDS011;11810;51.178;3.878;2023-05-23T08:08:47;12.13;;;4.15;;
23282;SDS011;11810;51.178;3.878;2023-05-23T08:11:13;7.07;;;3.15;;
23282;SDS011;11810;51.178;3.878;2023-05-23T08:13:39;12.75;;;3.97;;
23282;SDS011;11810;51.178;3.878;2023-05-23T08:16:05;11.13;;;3.53;;
23282;SDS011;11810;51.178;3.878;2023-05-23T08:18:31;13.48;;;3.67;;
23282;SDS011;11810;51.178;3.878;2023-05-23T08:20:57;12.40;;;3.40;;
23282;SDS011;11810;51.178;3.878;2023-05-23T08:23:23;12.23;;;3.35;;
23282;SDS011;11810;51.178;3.878;2023-05-23T08:25:50;8.50;;;3.15;;
23282;SDS011;11810;51.178;3.878;2023-05-23T08:28:16;7.78;;;2.53;;
23282;SDS011;11810;51.178;3.878;2023-05-23T08:30:42;8.43;;;2.72;;
23282;SDS011;11810;51.178;3.878;2023-05-23T08:33:08;13.48;;;3.08;;
23282;SDS011;11810;51.178;3.878;2023-05-23T08:35:34;17.58;;;3.03;;
23282;SDS011;11810;51.178;3.878;2023-05-23T08:38:01;13.45;;;2.72;;
23282;SDS011;11810;51.178;3.878;2023-05-23T08:40:31;10.55;;;3.22;;
23282;SDS011;11810;51.178;3.878;2023-05-23T08:43:00;10.20;;;3.63;;
23282;SDS011;11810;51.178;3.878;2023-05-23T08:45:26;10.93;;;3.15;;
23282;SDS011;11810;51.178;3.878;2023-05-23T08:47:54;13.25;;;3.53;;
23282;SDS011;11810;51.178;3.878;2023-05-23T08:50:21;15.63;;;3.45;;
23282;SDS011;11810;51.178;3.878;2023-05-23T08:53:00;17.38;;;3.40;;
23282;SDS011;11810;51.178;3.878;2023-05-23T08:55:28;15.75;;;3.55;;
23282;SDS011;11810;51.178;3.878;2023-05-23T08:57:55;12.60;;;3.15;;
23282;SDS011;11810;51.178;3.878;2023-05-23T09:00:26;15.48;;;3.92;;
23282;SDS011;11810;51.178;3.878;2023-05-23T09:02:52;14.15;;;3.65;;
23282;SDS011;11810;51.178;3.878;2023-05-23T09:05:19;15.70;;;3.47;;
23282;SDS011;11810;51.178;3.878;2023-05-23T09:07:45;18.15;;;4.50;;
23282;SDS011;11810;51.178;3.878;2023-05-23T09:10:13;14.50;;;3.53;;
23282;SDS011;11810;51.178;3.878;2023-05-23T09:12:44;20.77;;;4.72;;
23282;SDS011;11810;51.178;3.878;2023-05-23T09:15:10;15.13;;;4.43;;
23282;SDS011;11810;51.178;3.878;2023-05-23T09:17:36;21.55;;;4.53;;
23282;SDS011;11810;51.178;3.878;2023-05-23T09:20:03;24.17;;;4.05;;
23282;SDS011;11810;51.178;3.878;2023-05-23T09:25:03;18.85;;;4.15;;
23282;SDS011;11810;51.178;3.878;2023-05-23T09:27:30;16.80;;;4.03;;
23282;SDS011;11810;51.178;3.878;2023-05-23T09:29:56;20.52;;;4.63;;
23282;SDS011;11810;51.178;3.878;2023-05-23T09:32:22;17.85;;;4.32;;
23282;SDS011;11810;51.178;3.878;2023-05-23T09:40:00;20.88;;;3.83;;
23282;SDS011;11810;51.178;3.878;2023-05-23T09:42:31;20.85;;;3.90;;
23282;SDS011;11810;51.178;3.878;2023-05-23T09:44:58;17.58;;;4.47;;
23282;SDS011;11810;51.178;3.878;2023-05-23T09:47:24;24.70;;;4.78;;
23282;SDS011;11810;51.178;3.878;2023-05-23T09:49:51;20.85;;;4.75;;
23282;SDS011;11810;51.178;3.878;2023-05-23T09:52:17;22.92;;;4.38;;
23282;SDS011;11810;51.178;3.878;2023-05-23T09:54:47;24.13;;;4.75;;
23282;SDS011;11810;51.178;3.878;2023-05-23T09:57:13;18.65;;;4.05;;
23282;SDS011;11810;51.178;3.878;2023-05-23T09:59:41;19.13;;;4.53;;
23282;SDS011;11810;51.178;3.878;2023-05-23T10:02:16;15.05;;;4.13;;
23282;SDS011;11810;51.178;3.878;2023-05-23T10:05:06;17.15;;;4.07;;
23282;SDS011;11810;51.178;3.878;2023-05-23T10:07:38;21.83;;;4.40;;
23282;SDS011;11810;51.178;3.878;2023-05-23T10:10:05;21.17;;;4.97;;
23282;SDS011;11810;51.178;3.878;2023-05-23T10:15:14;16.08;;;4.13;;
23282;SDS011;11810;51.178;3.878;2023-05-23T10:18:04;16.55;;;3.78;;
23282;SDS011;11810;51.178;3.878;2023-05-23T10:20:31;15.70;;;4.65;;
23282;SDS011;11810;51.178;3.878;2023-05-23T10:22:59;20.65;;;3.90;;
23282;SDS011;11810;51.178;3.878;2023-05-23T10:25:27;24.05;;;4.28;;
23282;SDS011;11810;51.178;3.878;2023-05-23T10:27:57;17.55;;;4.05;;
23282;SDS011;11810;51.178;3.878;2023-05-23T10:30:24;23.42;;;4.10;;
23282;SDS011;11810;51.178;3.878;2023-05-23T10:32:51;27.52;;;5.05;;
23282;SDS011;11810;51.178;3.878;2023-05-23T10:40:26;19.70;;;4.50;;
23282;SDS011;11810;51.178;3.878;2023-05-23T10:43:00;18.08;;;4.40;;
23282;SDS011;11810;51.178;3.878;2023-05-23T10:45:43;18.20;;;4.45;;
23282;SDS011;11810;51.178;3.878;2023-05-23T10:48:54;13.05;;;3.83;;
23282;SDS011;11810;51.178;3.878;2023-05-23T10:51:02;19.55;;;3.83;;
23282;SDS011;11810;51.178;3.878;2023-05-23T10:53:29;14.00;;;3.60;;
23282;SDS011;11810;51.178;3.878;2023-05-23T10:55:56;25.75;;;4.00;;
23282;SDS011;11810;51.178;3.878;2023-05-23T10:58:22;21.08;;;4.75;;
23282;SDS011;11810;51.178;3.878;2023-05-23T11:00:55;18.08;;;4.20;;
23282;SDS011;11810;51.178;3.878;2023-05-23T11:03:34;23.08;;;4.80;;
23282;SDS011;11810;51.178;3.878;2023-05-23T11:06:03;17.48;;;4.22;;
23282;SDS011;11810;51.178;3.878;2023-05-23T11:08:36;20.05;;;4.00;;
23282;SDS011;11810;51.178;3.878;2023-05-23T11:11:04;14.43;;;3.78;;
23282;SDS011;11810;51.178;3.878;2023-05-23T11:21:51;13.63;;;3.97;;
23282;SDS011;11810;51.178;3.878;2023-05-23T11:29:37;14.90;;;4.07;;
23282;SDS011;11810;51.178;3.878;2023-05-23T11:32:09;19.58;;;4.15;;
23282;SDS011;11810;51.178;3.878;2023-05-23T11:34:37;22.23;;;4.33;;
23282;SDS011;11810;51.178;3.878;2023-05-23T11:37:04;16.13;;;3.92;;
23282;SDS011;11810;51.178;3.878;2023-05-23T11:39:30;18.30;;;3.72;;
23282;SDS011;11810;51.178;3.878;2023-05-23T11:41:59;18.15;;;3.22;;
23282;SDS011;11810;51.178;3.878;2023-05-23T11:44:29;15.23;;;2.95;;
23282;SDS011;11810;51.178;3.878;2023-05-23T11:47:01;14.85;;;3.40;;
23282;SDS011;11810;51.178;3.878;2023-05-23T11:49:29;13.57;;;3.95;;
23282;SDS011;11810;51.178;3.878;2023-05-23T11:51:56;12.38;;;3.65;;
23282;SDS011;11810;51.178;3.878;2023-05-23T11:54:24;11.65;;;3.40;;
23282;SDS011;11810;51.178;3.878;2023-05-23T11:56:51;17.90;;;4.13;;
23282;SDS011;11810;51.178;3.878;2023-05-23T11:59:17;15.88;;;3.67;;
23282;SDS011;11810;51.178;3.878;2023-05-23T12:01:43;20.92;;;3.85;;
23282;SDS011;11810;51.178;3.878;2023-05-23T12:04:09;15.68;;;3.90;;
23282;SDS011;11810;51.178;3.878;2023-05-23T12:06:41;16.73;;;4.00;;
23282;SDS011;11810;51.178;3.878;2023-05-23T12:09:07;19.45;;;3.70;;
23282;SDS011;11810;51.178;3.878;2023-05-23T12:11:37;17.10;;;3.60;;
23282;SDS011;11810;51.178;3.878;2023-05-23T12:14:04;18.10;;;3.42;;
23282;SDS011;11810;51.178;3.878;2023-05-23T12:16:34;15.38;;;3.63;;
23282;SDS011;11810;51.178;3.878;2023-05-23T12:19:01;12.50;;;3.28;;
23282;SDS011;11810;51.178;3.878;2023-05-23T12:21:40;14.25;;;3.33;;
23282;SDS011;11810;51.178;3.878;2023-05-23T12:24:20;15.75;;;3.88;;
23282;SDS011;11810;51.178;3.878;2023-05-23T12:26:47;15.57;;;3.00;;
23282;SDS011;11810;51.178;3.878;2023-05-23T12:29:14;12.40;;;3.20;;
23282;SDS011;11810;51.178;3.878;2023-05-23T12:31:42;17.42;;;4.07;;
23282;SDS011;11810;51.178;3.878;2023-05-23T12:34:09;14.55;;;3.78;;
23282;SDS011;11810;51.178;3.878;2023-05-23T12:36:36;13.68;;;3.65;;
23282;SDS011;11810;51.178;3.878;2023-05-23T12:39:03;17.77;;;4.07;;
23282;SDS011;11810;51.178;3.878;2023-05-23T12:41:31;11.63;;;3.17;;
23282;SDS011;11810;51.178;3.878;2023-05-23T12:43:58;11.50;;;3.10;;
23282;SDS011;11810;51.178;3.878;2023-05-23T12:46:25;24.00;;;3.63;;
23282;SDS011;11810;51.178;3.878;2023-05-23T12:48:51;17.90;;;3.95;;
23282;SDS011;11810;51.178;3.878;2023-05-23T12:51:18;15.63;;;3.50;;
23282;SDS011;11810;51.178;3.878;2023-05-23T12:53:45;12.10;;;3.20;;
23282;SDS011;11810;51.178;3.878;2023-05-23T12:56:11;13.63;;;3.25;;
23282;SDS011;11810;51.178;3.878;2023-05-23T12:58:37;11.07;;;3.05;;
23282;SDS011;11810;51.178;3.878;2023-05-23T13:01:03;24.65;;;3.78;;
23282;SDS011;11810;51.178;3.878;2023-05-23T13:03:29;18.52;;;3.63;;
23282;SDS011;11810;51.178;3.878;2023-05-23T13:05:55;13.07;;;3.55;;
23282;SDS011;11810;51.178;3.878;2023-05-23T13:08:22;14.05;;;2.78;;
23282;SDS011;11810;51.178;3.878;2023-05-23T13:10:48;12.93;;;3.50;;
23282;SDS011;11810;51.178;3.878;2023-05-23T13:13:14;15.07;;;3.40;;
23282;SDS011;11810;51.178;3.878;2023-05-23T13:15:40;18.25;;;3.45;;
23282;SDS011;11810;51.178;3.878;2023-05-23T13:18:06;19.02;;;3.25;;
23282;SDS011;11810;51.178;3.878;2023-05-23T13:20:32;15.07;;;3.05;;
23282;SDS011;11810;51.178;3.878;2023-05-23T13:22:58;14.48;;;3.60;;
23282;SDS011;11810;51.178;3.878;2023-05-23T13:25:28;13.98;;;3.80;;
23282;SDS011;11810;51.178;3.878;2023-05-23T13:27:54;18.60;;;3.45;;
23282;SDS011;11810;51.178;3.878;2023-05-23T13:30:21;20.17;;;3.80;;
23282;SDS011;11810;51.178;3.878;2023-05-23T13:32:49;19.55;;;3.30;;
23282;SDS011;11810;51.178;3.878;2023-05-23T13:35:15;13.93;;;3.00;;
23282;SDS011;11810;51.178;3.878;2023-05-23T13:37:41;14.88;;;3.55;;
23282;SDS011;11810;51.178;3.878;2023-05-23T13:40:10;15.60;;;3.25;;
23282;SDS011;11810;51.178;3.878;2023-05-23T13:42:38;14.60;;;3.78;;
23282;SDS011;11810;51.178;3.878;2023-05-23T13:45:04;15.70;;;3.80;;
23282;SDS011;11810;51.178;3.878;2023-05-23T13:47:31;17.95;;;3.42;;
23282;SDS011;11810;51.178;3.878;2023-05-23T13:49:57;15.63;;;3.25;;
23282;SDS011;11810;51.178;3.878;2023-05-23T13:52:23;15.10;;;3.78;;
23282;SDS011;11810;51.178;3.878;2023-05-23T13:54:49;18.45;;;3.85;;
23282;SDS011;11810;51.178;3.878;2023-05-23T13:57:15;14.63;;;3.00;;
23282;SDS011;11810;51.178;3.878;2023-05-23T13:59:40;12.63;;;3.10;;
23282;SDS011;11810;51.178;3.878;2023-05-23T14:02:06;15.45;;;3.90;;
23282;SDS011;11810;51.178;3.878;2023-05-23T14:04:32;13.02;;;3.10;;
23282;SDS011;11810;51.178;3.878;2023-05-23T14:06:59;19.63;;;3.47;;
23282;SDS011;11810;51.178;3.878;2023-05-23T14:09:25;18.48;;;3.25;;
23282;SDS011;11810;51.178;3.878;2023-05-23T14:11:50;16.88;;;3.72;;
23282;SDS011;11810;51.178;3.878;2023-05-23T14:14:17;15.05;;;3.22;;
23282;SDS011;11810;51.178;3.878;2023-05-23T14:16:43;12.68;;;2.78;;
23282;SDS011;11810;51.178;3.878;2023-05-23T14:19:09;12.77;;;3.10;;
23282;SDS011;11810;51.178;3.878;2023-05-23T14:21:34;12.23;;;2.70;;
23282;SDS011;11810;51.178;3.878;2023-05-23T14:24:01;14.25;;;3.20;;
23282;SDS011;11810;51.178;3.878;2023-05-23T14:26:27;11.95;;;3.10;;
23282;SDS011;11810;51.178;3.878;2023-05-23T14:28:53;12.25;;;3.13;;
23282;SDS011;11810;51.178;3.878;2023-05-23T14:31:19;13.70;;;3.10;;
23282;SDS011;11810;51.178;3.878;2023-05-23T14:33:46;18.05;;;3.67;;
23282;SDS011;11810;51.178;3.878;2023-05-23T14:36:14;13.48;;;2.80;;
23282;SDS011;11810;51.178;3.878;2023-05-23T14:38:40;14.50;;;3.47;;
23282;SDS011;11810;51.178;3.878;2023-05-23T14:41:09;13.30;;;3.35;;
23282;SDS011;11810;51.178;3.878;2023-05-23T14:43:36;12.85;;;3.13;;
23282;SDS011;11810;51.178;3.878;2023-05-23T14:46:02;13.70;;;2.92;;
23282;SDS011;11810;51.178;3.878;2023-05-23T14:48:28;18.52;;;3.55;;
23282;SDS011;11810;51.178;3.878;2023-05-23T14:50:54;12.38;;;3.38;;
23282;SDS011;11810;51.178;3.878;2023-05-23T14:53:20;15.50;;;3.47;;
23282;SDS011;11810;51.178;3.878;2023-05-23T14:55:48;14.80;;;3.17;;
23282;SDS011;11810;51.178;3.878;2023-05-23T14:58:14;19.30;;;3.15;;
23282;SDS011;11810;51.178;3.878;2023-05-23T15:00:40;18.30;;;3.22;;
23282;SDS011;11810;51.178;3.878;2023-05-23T15:03:06;16.08;;;3.42;;
23282;SDS011;11810;51.178;3.878;2023-05-23T15:05:32;9.00;;;2.30;;